createdAt,value
2022-09-15T00:03:40.895Z,23.40
2022-09-15T00:11:48.946Z,23.10
2022-09-15T00:19:54.397Z,23.10
2022-09-15T00:28:02.451Z,23.10
2022-09-15T00:36:10.358Z,22.80
2022-09-15T00:44:45.618Z,22.70
2022-09-15T00:52:57.322Z,22.90
2022-09-15T01:01:04.663Z,23.00
2022-09-15T01:09:18.520Z,22.70
2022-09-15T01:17:32.926Z,22.80
2022-09-15T01:26:05.658Z,22.90
2022-09-15T01:34:20.630Z,22.80
2022-09-15T01:42:28.429Z,22.90
2022-09-15T01:50:40.555Z,22.90
2022-09-15T01:58:46.034Z,22.90
2022-09-15T02:06:58.377Z,22.50
2022-09-15T02:15:08.805Z,22.50
2022-09-15T02:23:22.904Z,22.60
2022-09-15T02:31:30.174Z,22.70
2022-09-15T02:39:43.097Z,22.70
2022-09-15T02:47:49.666Z,22.80
2022-09-15T02:55:58.151Z,22.90
2022-09-15T03:04:04.804Z,23.10
2022-09-15T03:12:12.831Z,23.10
2022-09-15T03:20:22.674Z,22.90
2022-09-15T03:28:31.291Z,23.10
2022-09-15T03:36:36.877Z,23.00
2022-09-15T03:44:44.699Z,22.80
2022-09-15T03:52:49.978Z,22.80
2022-09-15T04:00:58.214Z,23.00
2022-09-15T04:09:03.563Z,23.00
2022-09-15T04:17:11.767Z,23.10
2022-09-15T04:25:17.201Z,23.00
2022-09-15T04:33:25.334Z,23.20
2022-09-15T04:41:31.392Z,23.30
2022-09-15T04:49:39.289Z,23.00
2022-09-15T04:57:44.580Z,23.50
2022-09-15T05:05:53.057Z,23.30
2022-09-15T05:13:58.285Z,23.60
2022-09-15T05:22:06.278Z,23.40
2022-09-15T05:38:41.791Z,23.90
2022-09-15T05:46:48.337Z,23.60
2022-09-15T05:54:59.189Z,23.70
2022-09-15T06:03:04.906Z,23.90
2022-09-15T06:11:15.717Z,24.00
2022-09-15T06:19:21.166Z,24.10
2022-09-15T06:27:29.287Z,24.20
2022-09-15T06:35:35.597Z,23.20
2022-09-15T06:43:43.764Z,23.50
2022-09-15T06:51:49.203Z,23.80
2022-09-15T06:59:57.090Z,24.40
2022-09-15T07:08:02.445Z,24.80
2022-09-15T07:16:12.830Z,25.30
2022-09-15T07:24:18.351Z,25.40
2022-09-15T07:32:26.307Z,25.60
2022-09-15T07:40:31.986Z,25.90
2022-09-15T07:48:39.918Z,26.10
2022-09-15T07:56:45.214Z,26.20
2022-09-15T08:04:53.270Z,26.20
2022-09-15T08:12:58.586Z,26.90
2022-09-15T08:21:07.794Z,27.90
2022-09-15T08:29:13.671Z,28.60
2022-09-15T08:37:22.289Z,29.00
2022-09-15T08:45:31.713Z,28.90
2022-09-15T08:53:46.104Z,28.60
2022-09-15T09:02:04.149Z,28.50
2022-09-15T09:10:18.369Z,28.40
2022-09-15T09:18:47.051Z,28.60
2022-09-15T09:26:58.655Z,28.40
2022-09-15T09:35:08.112Z,28.20
2022-09-15T09:43:16.097Z,28.20
2022-09-15T09:51:39.951Z,28.30
2022-09-15T09:59:49.537Z,28.30
2022-09-15T10:07:54.894Z,28.50
2022-09-15T10:16:05.236Z,28.40
2022-09-15T10:24:34.404Z,28.10
2022-09-15T10:32:43.405Z,27.90
2022-09-15T10:40:54.859Z,28.40
2022-09-15T10:49:16.392Z,30.10
2022-09-15T10:57:41.478Z,30.20
2022-09-15T11:06:04.158Z,29.90
2022-09-15T11:14:23.908Z,30.50
2022-09-15T11:22:37.607Z,34.50
2022-09-15T11:30:49.310Z,36.20
2022-09-15T11:39:02.582Z,35.90
2022-09-15T11:47:22.974Z,41.00
2022-09-15T11:55:37.346Z,45.10
2022-09-15T12:03:50.787Z,49.00
2022-09-15T12:12:04.554Z,51.40
2022-09-15T12:20:19.345Z,48.00
2022-09-15T12:28:42.577Z,42.60
2022-09-15T12:36:51.296Z,38.80
2022-09-15T12:45:01.152Z,36.30
2022-09-15T12:53:15.480Z,35.00
2022-09-15T13:01:53.758Z,34.00
2022-09-15T13:10:18.910Z,32.80
2022-09-15T13:18:28.167Z,32.00
2022-09-15T13:26:34.886Z,31.20
2022-09-15T13:35:22.611Z,30.50
2022-09-15T13:43:45.529Z,29.30
2022-09-15T13:52:02.485Z,30.40
2022-09-15T14:00:15.719Z,30.00
2022-09-15T14:08:30.433Z,30.30
2022-09-15T14:16:40.169Z,31.10
2022-09-15T14:24:49.126Z,31.10
2022-09-15T14:32:57.139Z,30.70
2022-09-15T14:41:05.547Z,30.50
2022-09-15T14:49:14.678Z,30.40
2022-09-15T14:57:30.776Z,30.20
2022-09-15T15:05:40.806Z,30.10
2022-09-15T15:13:53.204Z,29.90
2022-09-15T15:22:09.091Z,29.80
2022-09-15T15:30:48.552Z,29.60
2022-09-15T15:38:56.551Z,29.50
2022-09-15T15:47:25.722Z,29.10
2022-09-15T15:55:39.758Z,28.70
2022-09-15T16:03:47.752Z,28.90
2022-09-15T16:20:05.014Z,28.80
2022-09-15T16:28:10.318Z,28.70
2022-09-15T16:36:24.001Z,28.60
2022-09-15T16:44:29.361Z,28.40
2022-09-15T16:52:42.672Z,28.30
2022-09-15T17:00:49.418Z,28.10
2022-09-15T17:08:57.802Z,27.90
2022-09-15T17:17:03.333Z,27.90
2022-09-15T17:25:37.307Z,27.70
2022-09-15T17:33:43.159Z,27.60
2022-09-15T17:41:51.372Z,27.50
2022-09-15T17:49:56.919Z,27.50
2022-09-15T17:58:06.350Z,27.50
2022-09-15T18:06:13.483Z,27.30
2022-09-15T18:14:21.716Z,27.10
2022-09-15T18:22:29.780Z,26.80
2022-09-15T18:30:43.554Z,26.70
2022-09-15T18:38:48.953Z,26.50
2022-09-15T18:46:57.085Z,26.50
2022-09-15T18:55:02.494Z,26.40
2022-09-15T19:03:11.709Z,26.30
2022-09-15T19:11:17.443Z,26.10
2022-09-15T19:19:26.156Z,26.10
2022-09-15T19:27:33.564Z,26.00
2022-09-15T19:35:44.547Z,26.00
2022-09-15T19:43:49.861Z,25.70
2022-09-15T19:51:58.055Z,25.80
2022-09-15T20:00:03.410Z,25.80
2022-09-15T20:08:12.298Z,25.80
2022-09-15T20:16:19.884Z,25.70
2022-09-15T20:24:28.104Z,25.70
2022-09-15T20:32:34.646Z,25.70
2022-09-15T20:40:42.590Z,25.60
2022-09-15T20:48:48.742Z,25.60
2022-09-15T20:56:57.092Z,25.50
2022-09-15T21:05:02.357Z,25.50
2022-09-15T21:13:10.454Z,25.40
2022-09-15T21:21:17.389Z,25.40
2022-09-15T21:29:25.404Z,25.50
2022-09-15T21:37:32.145Z,25.40
2022-09-15T21:45:40.145Z,25.50
2022-09-15T21:53:46.155Z,25.50
2022-09-15T22:01:54.466Z,25.50
2022-09-15T22:09:59.738Z,25.40
2022-09-15T22:18:09.738Z,25.50
2022-09-15T22:26:18.159Z,25.40
2022-09-15T22:34:26.145Z,25.80
2022-09-15T22:42:31.508Z,25.90
2022-09-15T22:50:39.561Z,25.90
2022-09-15T22:58:46.657Z,25.60
2022-09-15T23:06:54.574Z,25.40
2022-09-15T23:15:04.021Z,25.40
2022-09-15T23:23:12.077Z,25.30
2022-09-15T23:31:18.203Z,25.30
2022-09-15T23:39:26.807Z,25.00
2022-09-15T23:47:32.153Z,24.90
2022-09-15T23:55:40.364Z,24.80
